Saint Mawgan, United Kingdom
Current Conditions -  °F | °C
As of 1:50 PM on Sunday 23 Nov 2014 (Local Time) from EGHQ Reporting Station
Few Clouds Few Clouds  
Wind Chill: 43°   Ceiling: Unl
Heat Index: 48°   Visibility: 6mi
Dew Point: 41°   Wind: 12mph
Humidity: 76%   Direction: 350°N
Pressure: 30.09"   Gusts: NA
Location:  50.45°N, 5°W
Report Text: EGHQ 231350Z 35010KT 9999 FEW026 09/05 Q1019
Loading
Personal Weather Stations






























Interactive Weather Map New forecast layout! Learn more

10-Day Weather Forecast

Advertisements
Track Severe Weather on mobile